sensor_id;sensor_type;location;lat;lon;timestamp;temperature;humidity
6824;DHT22;58633;49.470;11.004;2023-09-08T00:02:08;21.00;61.50
6824;DHT22;58633;49.470;11.004;2023-09-08T00:04:34;21.00;61.60
6824;DHT22;58633;49.470;11.004;2023-09-08T00:06:59;21.10;61.80
6824;DHT22;58633;49.470;11.004;2023-09-08T00:09:25;21.10;61.90
6824;DHT22;58633;49.470;11.004;2023-09-08T00:11:51;20.90;61.70
6824;DHT22;58633;49.470;11.004;2023-09-08T00:14:17;20.90;61.80
6824;DHT22;58633;49.470;11.004;2023-09-08T00:16:42;21.00;61.90
6824;DHT22;58633;49.470;11.004;2023-09-08T00:19:10;20.80;61.80
6824;DHT22;58633;49.470;11.004;2023-09-08T00:21:36;22.80;64.20
6824;DHT22;58633;49.470;11.004;2023-09-08T00:24:02;20.80;62.20
6824;DHT22;58633;49.470;11.004;2023-09-08T00:26:29;20.70;62.20
6824;DHT22;58633;49.470;11.004;2023-09-08T00:28:54;20.80;62.50
6824;DHT22;58633;49.470;11.004;2023-09-08T00:31:20;20.60;63.10
6824;DHT22;58633;49.470;11.004;2023-09-08T00:33:46;20.70;62.60
6824;DHT22;58633;49.470;11.004;2023-09-08T00:36:11;20.70;62.70
6824;DHT22;58633;49.470;11.004;2023-09-08T00:38:37;20.60;62.60
6824;DHT22;58633;49.470;11.004;2023-09-08T00:41:05;20.60;62.70
6824;DHT22;58633;49.470;11.004;2023-09-08T00:43:30;20.50;62.60
6824;DHT22;58633;49.470;11.004;2023-09-08T00:45:56;20.40;62.80
6824;DHT22;58633;49.470;11.004;2023-09-08T00:48:24;20.40;63.00
6824;DHT22;58633;49.470;11.004;2023-09-08T00:50:50;20.40;63.20
6824;DHT22;58633;49.470;11.004;2023-09-08T00:53:16;20.30;63.40
6824;DHT22;58633;49.470;11.004;2023-09-08T00:55:42;20.40;63.60
6824;DHT22;58633;49.470;11.004;2023-09-08T00:58:07;20.40;63.40
6824;DHT22;58633;49.470;11.004;2023-09-08T01:00:33;20.40;63.30
6824;DHT22;58633;49.470;11.004;2023-09-08T01:02:59;20.30;63.30
6824;DHT22;58633;49.470;11.004;2023-09-08T01:05:25;20.30;63.50
6824;DHT22;58633;49.470;11.004;2023-09-08T01:07:51;20.20;63.60
6824;DHT22;58633;49.470;11.004;2023-09-08T01:10:17;20.10;63.50
6824;DHT22;58633;49.470;11.004;2023-09-08T01:12:43;20.00;63.60
6824;DHT22;58633;49.470;11.004;2023-09-08T01:15:09;20.00;63.70
6824;DHT22;58633;49.470;11.004;2023-09-08T01:17:34;20.00;63.80
6824;DHT22;58633;49.470;11.004;2023-09-08T01:20:04;21.40;65.40
6824;DHT22;58633;49.470;11.004;2023-09-08T01:23:03;20.00;64.10
6824;DHT22;58633;49.470;11.004;2023-09-08T01:25:45;19.90;63.90
6824;DHT22;58633;49.470;11.004;2023-09-08T01:28:12;19.80;63.90
6824;DHT22;58633;49.470;11.004;2023-09-08T01:30:38;19.80;64.10
6824;DHT22;58633;49.470;11.004;2023-09-08T01:33:05;19.80;64.20
6824;DHT22;58633;49.470;11.004;2023-09-08T01:35:30;19.90;64.30
6824;DHT22;58633;49.470;11.004;2023-09-08T01:37:56;21.50;65.90
6824;DHT22;58633;49.470;11.004;2023-09-08T01:40:22;19.70;64.30
6824;DHT22;58633;49.470;11.004;2023-09-08T01:42:48;19.70;64.40
6824;DHT22;58633;49.470;11.004;2023-09-08T01:45:14;21.70;66.40
6824;DHT22;58633;49.470;11.004;2023-09-08T01:47:40;19.70;64.40
6824;DHT22;58633;49.470;11.004;2023-09-08T01:50:06;19.50;64.60
6824;DHT22;58633;49.470;11.004;2023-09-08T01:52:31;19.40;64.80
6824;DHT22;58633;49.470;11.004;2023-09-08T01:54:57;19.30;65.00
6824;DHT22;58633;49.470;11.004;2023-09-08T01:57:22;19.30;65.20
6824;DHT22;58633;49.470;11.004;2023-09-08T01:59:48;19.20;65.30
6824;DHT22;58633;49.470;11.004;2023-09-08T02:02:14;19.30;65.60
6824;DHT22;58633;49.470;11.004;2023-09-08T02:04:39;19.30;65.50
6824;DHT22;58633;49.470;11.004;2023-09-08T02:07:05;19.20;65.50
6824;DHT22;58633;49.470;11.004;2023-09-08T02:09:32;19.20;65.60
6824;DHT22;58633;49.470;11.004;2023-09-08T02:11:57;19.10;65.50
6824;DHT22;58633;49.470;11.004;2023-09-08T02:14:23;19.10;65.60
6824;DHT22;58633;49.470;11.004;2023-09-08T02:16:49;19.10;65.80
6824;DHT22;58633;49.470;11.004;2023-09-08T02:19:14;19.20;65.90
6824;DHT22;58633;49.470;11.004;2023-09-08T02:21:39;19.20;65.50
6824;DHT22;58633;49.470;11.004;2023-09-08T02:24:05;19.00;65.30
6824;DHT22;58633;49.470;11.004;2023-09-08T02:26:31;19.00;65.70
6824;DHT22;58633;49.470;11.004;2023-09-08T02:28:59;19.00;65.80
6824;DHT22;58633;49.470;11.004;2023-09-08T02:31:26;19.00;65.90
6824;DHT22;58633;49.470;11.004;2023-09-08T02:33:52;19.00;66.00
6824;DHT22;58633;49.470;11.004;2023-09-08T02:36:17;18.80;65.90
6824;DHT22;58633;49.470;11.004;2023-09-08T02:38:43;18.80;66.00
6824;DHT22;58633;49.470;11.004;2023-09-08T02:41:09;18.70;66.10
6824;DHT22;58633;49.470;11.004;2023-09-08T02:43:34;18.70;66.20
6824;DHT22;58633;49.470;11.004;2023-09-08T02:46:00;22.30;70.00
6824;DHT22;58633;49.470;11.004;2023-09-08T02:48:25;18.60;66.20
6824;DHT22;58633;49.470;11.004;2023-09-08T02:50:51;18.50;66.50
6824;DHT22;58633;49.470;11.004;2023-09-08T02:53:17;19.50;67.70
6824;DHT22;58633;49.470;11.004;2023-09-08T02:55:43;19.60;67.70
6824;DHT22;58633;49.470;11.004;2023-09-08T02:58:08;18.60;66.90
6824;DHT22;58633;49.470;11.004;2023-09-08T03:00:34;18.70;66.80
6824;DHT22;58633;49.470;11.004;2023-09-08T03:02:59;20.70;68.90
6824;DHT22;58633;49.470;11.004;2023-09-08T03:05:24;18.60;66.90
6824;DHT22;58633;49.470;11.004;2023-09-08T03:07:50;18.50;66.60
6824;DHT22;58633;49.470;11.004;2023-09-08T03:10:16;18.50;66.40
6824;DHT22;58633;49.470;11.004;2023-09-08T03:12:41;18.50;66.70
6824;DHT22;58633;49.470;11.004;2023-09-08T03:15:07;18.30;66.60
6824;DHT22;58633;49.470;11.004;2023-09-08T03:17:33;18.30;66.60
6824;DHT22;58633;49.470;11.004;2023-09-08T03:19:59;18.20;66.70
6824;DHT22;58633;49.470;11.004;2023-09-08T03:22:25;18.40;67.10
6824;DHT22;58633;49.470;11.004;2023-09-08T03:24:50;18.30;67.00
6824;DHT22;58633;49.470;11.004;2023-09-08T03:27:16;18.20;66.80
6824;DHT22;58633;49.470;11.004;2023-09-08T03:29:41;18.20;67.00
6824;DHT22;58633;49.470;11.004;2023-09-08T03:32:07;18.10;67.30
6824;DHT22;58633;49.470;11.004;2023-09-08T03:34:33;18.20;67.40
6824;DHT22;58633;49.470;11.004;2023-09-08T03:36:58;18.20;67.10
6824;DHT22;58633;49.470;11.004;2023-09-08T03:39:24;18.20;67.00
6824;DHT22;58633;49.470;11.004;2023-09-08T03:41:49;18.10;67.20
6824;DHT22;58633;49.470;11.004;2023-09-08T03:44:15;18.10;67.10
6824;DHT22;58633;49.470;11.004;2023-09-08T03:46:40;18.10;67.30
6824;DHT22;58633;49.470;11.004;2023-09-08T03:49:06;18.10;67.30
6824;DHT22;58633;49.470;11.004;2023-09-08T03:51:32;18.00;67.40
6824;DHT22;58633;49.470;11.004;2023-09-08T03:53:58;18.10;67.60
6824;DHT22;58633;49.470;11.004;2023-09-08T03:56:23;18.00;67.60
6824;DHT22;58633;49.470;11.004;2023-09-08T03:58:49;18.00;67.60
6824;DHT22;58633;49.470;11.004;2023-09-08T04:01:15;17.90;67.50
6824;DHT22;58633;49.470;11.004;2023-09-08T04:03:40;17.70;67.60
6824;DHT22;58633;49.470;11.004;2023-09-08T04:06:06;17.80;67.80
6824;DHT22;58633;49.470;11.004;2023-09-08T04:08:31;17.60;67.50
6824;DHT22;58633;49.470;11.004;2023-09-08T04:10:57;19.30;69.70
6824;DHT22;58633;49.470;11.004;2023-09-08T04:13:22;17.70;68.20
6824;DHT22;58633;49.470;11.004;2023-09-08T04:15:48;17.70;68.30
6824;DHT22;58633;49.470;11.004;2023-09-08T04:18:13;17.70;68.20
6824;DHT22;58633;49.470;11.004;2023-09-08T04:20:39;18.10;68.70
6824;DHT22;58633;49.470;11.004;2023-09-08T04:23:05;17.70;68.30
6824;DHT22;58633;49.470;11.004;2023-09-08T04:25:30;17.50;68.30
6824;DHT22;58633;49.470;11.004;2023-09-08T04:27:56;17.60;68.40
6824;DHT22;58633;49.470;11.004;2023-09-08T04:30:21;17.50;68.20
6824;DHT22;58633;49.470;11.004;2023-09-08T04:32:47;17.50;68.40
6824;DHT22;58633;49.470;11.004;2023-09-08T04:35:12;17.50;68.40
6824;DHT22;58633;49.470;11.004;2023-09-08T04:37:38;17.50;68.50
6824;DHT22;58633;49.470;11.004;2023-09-08T04:40:05;17.30;68.40
6824;DHT22;58633;49.470;11.004;2023-09-08T04:42:30;17.50;68.80
6824;DHT22;58633;49.470;11.004;2023-09-08T04:44:56;17.50;68.80
6824;DHT22;58633;49.470;11.004;2023-09-08T04:47:22;17.50;68.60
6824;DHT22;58633;49.470;11.004;2023-09-08T04:49:47;17.50;68.30
6824;DHT22;58633;49.470;11.004;2023-09-08T04:52:13;20.50;71.40
6824;DHT22;58633;49.470;11.004;2023-09-08T04:54:39;17.30;68.30
6824;DHT22;58633;49.470;11.004;2023-09-08T04:57:04;17.40;68.50
6824;DHT22;58633;49.470;11.004;2023-09-08T04:59:30;17.40;68.50
6824;DHT22;58633;49.470;11.004;2023-09-08T05:01:56;17.30;68.50
6824;DHT22;58633;49.470;11.004;2023-09-08T05:04:21;17.30;68.70
6824;DHT22;58633;49.470;11.004;2023-09-08T05:06:47;17.30;68.70
6824;DHT22;58633;49.470;11.004;2023-09-08T05:09:13;17.30;68.70
6824;DHT22;58633;49.470;11.004;2023-09-08T05:11:39;17.30;68.70
6824;DHT22;58633;49.470;11.004;2023-09-08T05:14:04;17.20;68.80
6824;DHT22;58633;49.470;11.004;2023-09-08T05:16:30;17.60;69.20
6824;DHT22;58633;49.470;11.004;2023-09-08T05:19:10;17.30;69.10
6824;DHT22;58633;49.470;11.004;2023-09-08T05:21:36;17.30;69.20
6824;DHT22;58633;49.470;11.004;2023-09-08T05:24:02;17.50;69.20
6824;DHT22;58633;49.470;11.004;2023-09-08T05:26:28;17.50;68.70
6824;DHT22;58633;49.470;11.004;2023-09-08T05:28:54;17.40;68.60
6824;DHT22;58633;49.470;11.004;2023-09-08T05:31:19;17.40;68.70
6824;DHT22;58633;49.470;11.004;2023-09-08T05:33:45;17.40;68.40
6824;DHT22;58633;49.470;11.004;2023-09-08T05:36:10;17.40;68.40
6824;DHT22;58633;49.470;11.004;2023-09-08T05:38:36;17.80;68.70
6824;DHT22;58633;49.470;11.004;2023-09-08T05:41:01;17.40;68.10
6824;DHT22;58633;49.470;11.004;2023-09-08T05:43:28;17.40;68.20
6824;DHT22;58633;49.470;11.004;2023-09-08T05:45:53;17.50;68.10
6824;DHT22;58633;49.470;11.004;2023-09-08T05:48:19;17.50;67.90
6824;DHT22;58633;49.470;11.004;2023-09-08T05:50:44;18.30;68.50
6824;DHT22;58633;49.470;11.004;2023-09-08T05:53:10;17.60;67.90
6824;DHT22;58633;49.470;11.004;2023-09-08T05:55:36;17.50;67.90
6824;DHT22;58633;49.470;11.004;2023-09-08T05:58:01;17.50;67.80
6824;DHT22;58633;49.470;11.004;2023-09-08T06:00:27;20.30;70.80
6824;DHT22;58633;49.470;11.004;2023-09-08T06:02:53;18.90;69.30
6824;DHT22;58633;49.470;11.004;2023-09-08T06:05:18;17.70;68.20
6824;DHT22;58633;49.470;11.004;2023-09-08T06:07:44;18.60;69.10
6824;DHT22;58633;49.470;11.004;2023-09-08T06:10:09;17.70;68.30
6824;DHT22;58633;49.470;11.004;2023-09-08T06:12:35;17.70;69.10
6824;DHT22;58633;49.470;11.004;2023-09-08T06:15:02;17.80;68.40
6824;DHT22;58633;49.470;11.004;2023-09-08T06:17:28;17.80;68.10
6824;DHT22;58633;49.470;11.004;2023-09-08T06:19:54;18.10;68.20
6824;DHT22;58633;49.470;11.004;2023-09-08T06:22:19;17.90;67.80
6824;DHT22;58633;49.470;11.004;2023-09-08T06:24:45;17.90;67.80
6824;DHT22;58633;49.470;11.004;2023-09-08T06:27:10;17.90;67.70
6824;DHT22;58633;49.470;11.004;2023-09-08T06:29:37;18.00;67.80
6824;DHT22;58633;49.470;11.004;2023-09-08T06:32:02;18.00;67.60
6824;DHT22;58633;49.470;11.004;2023-09-08T06:34:28;18.00;67.50
6824;DHT22;58633;49.470;11.004;2023-09-08T06:36:53;18.10;67.50
6824;DHT22;58633;49.470;11.004;2023-09-08T06:39:19;20.10;70.10
6824;DHT22;58633;49.470;11.004;2023-09-08T06:41:44;18.10;67.50
6824;DHT22;58633;49.470;11.004;2023-09-08T06:44:10;19.50;68.90
6824;DHT22;58633;49.470;11.004;2023-09-08T06:46:35;18.10;67.60
6824;DHT22;58633;49.470;11.004;2023-09-08T06:49:01;18.10;67.50
6824;DHT22;58633;49.470;11.004;2023-09-08T06:51:26;20.00;69.60
6824;DHT22;58633;49.470;11.004;2023-09-08T06:53:56;18.30;67.90
6824;DHT22;58633;49.470;11.004;2023-09-08T06:56:22;18.20;67.70
6824;DHT22;58633;49.470;11.004;2023-09-08T06:58:47;18.30;67.70
6824;DHT22;58633;49.470;11.004;2023-09-08T07:01:13;18.30;67.70
6824;DHT22;58633;49.470;11.004;2023-09-08T07:03:38;18.20;67.50
6824;DHT22;58633;49.470;11.004;2023-09-08T07:06:04;18.30;67.60
6824;DHT22;58633;49.470;11.004;2023-09-08T07:08:29;18.30;67.50
6824;DHT22;58633;49.470;11.004;2023-09-08T07:10:55;18.50;67.60
6824;DHT22;58633;49.470;11.004;2023-09-08T07:13:21;18.40;67.30
6824;DHT22;58633;49.470;11.004;2023-09-08T07:15:46;18.60;67.30
6824;DHT22;58633;49.470;11.004;2023-09-08T07:18:12;20.20;68.80
6824;DHT22;58633;49.470;11.004;2023-09-08T07:20:37;20.80;69.30
6824;DHT22;58633;49.470;11.004;2023-09-08T07:23:03;19.30;67.60
6824;DHT22;58633;49.470;11.004;2023-09-08T07:25:28;18.70;66.90
6824;DHT22;58633;49.470;11.004;2023-09-08T07:27:54;19.80;67.90
6824;DHT22;58633;49.470;11.004;2023-09-08T07:30:20;18.90;66.80
6824;DHT22;58633;49.470;11.004;2023-09-08T07:32:45;18.90;66.80
6824;DHT22;58633;49.470;11.004;2023-09-08T07:35:11;19.00;66.80
6824;DHT22;58633;49.470;11.004;2023-09-08T07:37:40;18.90;66.50
6824;DHT22;58633;49.470;11.004;2023-09-08T07:40:07;19.10;66.60
6824;DHT22;58633;49.470;11.004;2023-09-08T07:42:33;19.20;66.30
6824;DHT22;58633;49.470;11.004;2023-09-08T07:44:58;19.20;66.10
6824;DHT22;58633;49.470;11.004;2023-09-08T07:47:24;19.30;65.90
6824;DHT22;58633;49.470;11.004;2023-09-08T07:49:49;19.40;65.80
6824;DHT22;58633;49.470;11.004;2023-09-08T07:52:15;19.50;65.70
6824;DHT22;58633;49.470;11.004;2023-09-08T07:54:41;19.40;65.40
6824;DHT22;58633;49.470;11.004;2023-09-08T07:57:06;19.50;65.30
6824;DHT22;58633;49.470;11.004;2023-09-08T07:59:32;19.60;65.10
6824;DHT22;58633;49.470;11.004;2023-09-08T08:01:57;19.70;64.90
6824;DHT22;58633;49.470;11.004;2023-09-08T08:04:23;19.70;64.50
6824;DHT22;58633;49.470;11.004;2023-09-08T08:06:48;19.90;64.30
6824;DHT22;58633;49.470;11.004;2023-09-08T08:09:14;19.90;63.90
6824;DHT22;58633;49.470;11.004;2023-09-08T08:11:40;21.60;65.50
6824;DHT22;58633;49.470;11.004;2023-09-08T08:14:05;20.10;63.90
6824;DHT22;58633;49.470;11.004;2023-09-08T08:16:31;20.20;63.80
6824;DHT22;58633;49.470;11.004;2023-09-08T08:18:56;20.20;63.60
6824;DHT22;58633;49.470;11.004;2023-09-08T08:21:22;20.20;63.50
6824;DHT22;58633;49.470;11.004;2023-09-08T08:23:50;20.40;63.60
6824;DHT22;58633;49.470;11.004;2023-09-08T08:26:15;20.40;63.50
6824;DHT22;58633;49.470;11.004;2023-09-08T08:28:41;20.40;63.40
6824;DHT22;58633;49.470;11.004;2023-09-08T08:31:07;20.60;63.30
6824;DHT22;58633;49.470;11.004;2023-09-08T08:33:32;20.70;62.70
6824;DHT22;58633;49.470;11.004;2023-09-08T08:35:58;20.80;62.20
6824;DHT22;58633;49.470;11.004;2023-09-08T08:38:23;20.90;61.90
6824;DHT22;58633;49.470;11.004;2023-09-08T08:40:49;21.10;61.60
6824;DHT22;58633;49.470;11.004;2023-09-08T08:43:15;22.30;62.50
6824;DHT22;58633;49.470;11.004;2023-09-08T08:45:42;21.50;61.10
6824;DHT22;58633;49.470;11.004;2023-09-08T08:48:08;21.60;60.90
6824;DHT22;58633;49.470;11.004;2023-09-08T08:50:35;21.80;60.80
6824;DHT22;58633;49.470;11.004;2023-09-08T08:53:01;21.80;60.30
6824;DHT22;58633;49.470;11.004;2023-09-08T08:55:30;22.30;60.20
6824;DHT22;58633;49.470;11.004;2023-09-08T08:58:03;22.30;59.70
6824;DHT22;58633;49.470;11.004;2023-09-08T09:00:29;22.40;59.70
6824;DHT22;58633;49.470;11.004;2023-09-08T09:02:55;22.50;58.80
6824;DHT22;58633;49.470;11.004;2023-09-08T09:05:23;22.80;58.60
6824;DHT22;58633;49.470;11.004;2023-09-08T09:07:50;23.00;58.20
6824;DHT22;58633;49.470;11.004;2023-09-08T09:10:15;23.00;57.90
6824;DHT22;58633;49.470;11.004;2023-09-08T09:12:41;23.70;58.30
6824;DHT22;58633;49.470;11.004;2023-09-08T09:15:07;25.90;59.40
6824;DHT22;58633;49.470;11.004;2023-09-08T09:17:34;23.50;57.20
6824;DHT22;58633;49.470;11.004;2023-09-08T09:20:17;23.70;56.90
6824;DHT22;58633;49.470;11.004;2023-09-08T09:22:45;23.80;56.60
6824;DHT22;58633;49.470;11.004;2023-09-08T09:25:21;23.90;56.50
6824;DHT22;58633;49.470;11.004;2023-09-08T09:27:55;24.00;56.30
6824;DHT22;58633;49.470;11.004;2023-09-08T09:30:22;24.10;56.30
6824;DHT22;58633;49.470;11.004;2023-09-08T09:32:57;25.20;56.80
6824;DHT22;58633;49.470;11.004;2023-09-08T09:35:43;24.40;55.80
6824;DHT22;58633;49.470;11.004;2023-09-08T09:38:09;24.50;55.60
6824;DHT22;58633;49.470;11.004;2023-09-08T09:40:34;24.80;55.50
6824;DHT22;58633;49.470;11.004;2023-09-08T09:43:00;24.90;55.20
6824;DHT22;58633;49.470;11.004;2023-09-08T09:45:26;26.30;55.70
6824;DHT22;58633;49.470;11.004;2023-09-08T09:47:52;25.20;54.40
6824;DHT22;58633;49.470;11.004;2023-09-08T09:50:28;25.30;54.10
6824;DHT22;58633;49.470;11.004;2023-09-08T09:52:57;25.40;53.60
6824;DHT22;58633;49.470;11.004;2023-09-08T09:55:25;25.60;53.20
6824;DHT22;58633;49.470;11.004;2023-09-08T09:57:57;25.60;53.60
6824;DHT22;58633;49.470;11.004;2023-09-08T10:00:25;25.80;52.90
6824;DHT22;58633;49.470;11.004;2023-09-08T10:02:52;25.90;52.50
6824;DHT22;58633;49.470;11.004;2023-09-08T10:05:19;26.00;51.80
6824;DHT22;58633;49.470;11.004;2023-09-08T10:07:49;26.20;51.70
6824;DHT22;58633;49.470;11.004;2023-09-08T10:10:15;26.30;51.50
6824;DHT22;58633;49.470;11.004;2023-09-08T10:12:46;27.20;51.60
6824;DHT22;58633;49.470;11.004;2023-09-08T10:15:13;26.50;50.40
6824;DHT22;58633;49.470;11.004;2023-09-08T10:17:44;27.40;50.50
6824;DHT22;58633;49.470;11.004;2023-09-08T10:20:11;26.80;49.90
6824;DHT22;58633;49.470;11.004;2023-09-08T10:22:45;26.90;49.50
6824;DHT22;58633;49.470;11.004;2023-09-08T10:25:12;27.10;48.40
6824;DHT22;58633;49.470;11.004;2023-09-08T10:27:40;27.10;47.80
6824;DHT22;58633;49.470;11.004;2023-09-08T10:30:07;27.40;48.10
6824;DHT22;58633;49.470;11.004;2023-09-08T10:32:34;27.30;48.00
6824;DHT22;58633;49.470;11.004;2023-09-08T10:35:02;27.40;47.90
6824;DHT22;58633;49.470;11.004;2023-09-08T10:37:28;27.60;48.30
6824;DHT22;58633;49.470;11.004;2023-09-08T10:40:21;27.80;47.60
6824;DHT22;58633;49.470;11.004;2023-09-08T10:42:47;27.90;47.60
6824;DHT22;58633;49.470;11.004;2023-09-08T10:45:18;28.00;47.40
6824;DHT22;58633;49.470;11.004;2023-09-08T10:50:39;29.10;47.20
6824;DHT22;58633;49.470;11.004;2023-09-08T10:53:18;28.40;46.30
6824;DHT22;58633;49.470;11.004;2023-09-08T10:55:48;28.70;45.80
6824;DHT22;58633;49.470;11.004;2023-09-08T10:58:33;28.70;44.80
6824;DHT22;58633;49.470;11.004;2023-09-08T11:01:00;29.00;44.60
6824;DHT22;58633;49.470;11.004;2023-09-08T11:06:10;29.20;44.30
6824;DHT22;58633;49.470;11.004;2023-09-08T11:08:42;29.50;43.80
6824;DHT22;58633;49.470;11.004;2023-09-08T11:11:09;29.50;43.90
6824;DHT22;58633;49.470;11.004;2023-09-08T11:13:35;29.60;43.70
6824;DHT22;58633;49.470;11.004;2023-09-08T11:16:01;29.80;42.60
6824;DHT22;58633;49.470;11.004;2023-09-08T11:18:31;30.20;42.50
6824;DHT22;58633;49.470;11.004;2023-09-08T11:20:59;30.50;42.80
6824;DHT22;58633;49.470;11.004;2023-09-08T11:23:25;30.30;42.80
6824;DHT22;58633;49.470;11.004;2023-09-08T11:25:52;30.40;42.60
6824;DHT22;58633;49.470;11.004;2023-09-08T11:28:19;30.40;42.40
6824;DHT22;58633;49.470;11.004;2023-09-08T11:30:50;30.60;42.30
6824;DHT22;58633;49.470;11.004;2023-09-08T11:33:20;30.70;41.90
6824;DHT22;58633;49.470;11.004;2023-09-08T11:35:55;30.90;42.00
6824;DHT22;58633;49.470;11.004;2023-09-08T11:38:27;31.10;41.70
6824;DHT22;58633;49.470;11.004;2023-09-08T11:40:54;31.10;41.50
6824;DHT22;58633;49.470;11.004;2023-09-08T11:43:20;31.30;41.40
6824;DHT22;58633;49.470;11.004;2023-09-08T11:45:46;31.40;41.20
6824;DHT22;58633;49.470;11.004;2023-09-08T11:48:14;31.40;40.50
6824;DHT22;58633;49.470;11.004;2023-09-08T11:50:41;31.80;40.20
6824;DHT22;58633;49.470;11.004;2023-09-08T11:53:06;32.00;40.30
6824;DHT22;58633;49.470;11.004;2023-09-08T11:55:32;32.00;40.30
6824;DHT22;58633;49.470;11.004;2023-09-08T11:57:58;33.10;40.90
6824;DHT22;58633;49.470;11.004;2023-09-08T12:00:25;32.10;40.30
6824;DHT22;58633;49.470;11.004;2023-09-08T12:02:51;32.10;40.40
6824;DHT22;58633;49.470;11.004;2023-09-08T12:07:50;32.20;40.10
6824;DHT22;58633;49.470;11.004;2023-09-08T12:10:16;32.40;40.00
6824;DHT22;58633;49.470;11.004;2023-09-08T12:12:51;32.50;40.10
6824;DHT22;58633;49.470;11.004;2023-09-08T12:15:40;32.50;40.00
6824;DHT22;58633;49.470;11.004;2023-09-08T12:18:11;32.50;39.80
6824;DHT22;58633;49.470;11.004;2023-09-08T12:20:38;32.90;39.50
6824;DHT22;58633;49.470;11.004;2023-09-08T12:23:22;33.20;39.30
6824;DHT22;58633;49.470;11.004;2023-09-08T12:25:49;33.40;38.60
6824;DHT22;58633;49.470;11.004;2023-09-08T12:28:17;33.50;38.30
6824;DHT22;58633;49.470;11.004;2023-09-08T12:30:43;33.80;37.70
6824;DHT22;58633;49.470;11.004;2023-09-08T12:33:09;33.80;37.20
6824;DHT22;58633;49.470;11.004;2023-09-08T12:35:35;33.80;36.40
6824;DHT22;58633;49.470;11.004;2023-09-08T12:38:05;34.00;36.50
6824;DHT22;58633;49.470;11.004;2023-09-08T12:40:37;34.10;36.70
6824;DHT22;58633;49.470;11.004;2023-09-08T12:43:03;34.40;36.70
6824;DHT22;58633;49.470;11.004;2023-09-08T12:45:29;34.60;36.00
6824;DHT22;58633;49.470;11.004;2023-09-08T12:48:00;34.90;35.80
6824;DHT22;58633;49.470;11.004;2023-09-08T12:50:29;35.30;35.70
6824;DHT22;58633;49.470;11.004;2023-09-08T12:52:55;35.30;35.50
6824;DHT22;58633;49.470;11.004;2023-09-08T12:55:21;36.60;35.60
6824;DHT22;58633;49.470;11.004;2023-09-08T12:57:46;36.80;35.30
6824;DHT22;58633;49.470;11.004;2023-09-08T13:00:13;35.90;34.00
6824;DHT22;58633;49.470;11.004;2023-09-08T13:02:39;36.50;33.30
6824;DHT22;58633;49.470;11.004;2023-09-08T13:05:05;36.50;32.40
6824;DHT22;58633;49.470;11.004;2023-09-08T13:07:30;36.80;30.80
6824;DHT22;58633;49.470;11.004;2023-09-08T13:09:56;37.30;31.40
6824;DHT22;58633;49.470;11.004;2023-09-08T13:12:21;38.00;31.40
6824;DHT22;58633;49.470;11.004;2023-09-08T13:14:47;39.10;30.40
6824;DHT22;58633;49.470;11.004;2023-09-08T13:17:13;40.20;29.20
6824;DHT22;58633;49.470;11.004;2023-09-08T13:19:40;40.80;28.50
6824;DHT22;58633;49.470;11.004;2023-09-08T13:22:06;41.30;28.40
6824;DHT22;58633;49.470;11.004;2023-09-08T13:24:33;41.70;28.30
6824;DHT22;58633;49.470;11.004;2023-09-08T13:27:02;42.30;27.90
6824;DHT22;58633;49.470;11.004;2023-09-08T13:29:28;42.60;27.10
6824;DHT22;58633;49.470;11.004;2023-09-08T13:31:54;42.90;27.10
6824;DHT22;58633;49.470;11.004;2023-09-08T13:34:21;43.10;27.30
6824;DHT22;58633;49.470;11.004;2023-09-08T13:36:47;43.40;26.80
6824;DHT22;58633;49.470;11.004;2023-09-08T13:39:12;43.70;26.70
6824;DHT22;58633;49.470;11.004;2023-09-08T13:41:48;44.00;26.60
6824;DHT22;58633;49.470;11.004;2023-09-08T13:44:14;44.30;26.30
6824;DHT22;58633;49.470;11.004;2023-09-08T13:46:39;44.30;26.30
6824;DHT22;58633;49.470;11.004;2023-09-08T13:49:05;44.50;26.30
6824;DHT22;58633;49.470;11.004;2023-09-08T13:51:30;44.50;26.20
6824;DHT22;58633;49.470;11.004;2023-09-08T13:53:56;44.60;25.90
6824;DHT22;58633;49.470;11.004;2023-09-08T13:56:22;44.70;25.90
6824;DHT22;58633;49.470;11.004;2023-09-08T13:58:47;44.90;25.60
6824;DHT22;58633;49.470;11.004;2023-09-08T14:01:13;45.60;25.70
6824;DHT22;58633;49.470;11.004;2023-09-08T14:03:38;45.50;25.30
6824;DHT22;58633;49.470;11.004;2023-09-08T14:06:04;45.80;25.00
6824;DHT22;58633;49.470;11.004;2023-09-08T14:08:29;45.90;24.90
6824;DHT22;58633;49.470;11.004;2023-09-08T14:10:55;46.00;24.90
6824;DHT22;58633;49.470;11.004;2023-09-08T14:13:20;46.10;24.90
6824;DHT22;58633;49.470;11.004;2023-09-08T14:15:46;46.30;24.60
6824;DHT22;58633;49.470;11.004;2023-09-08T14:18:11;46.20;24.30
6824;DHT22;58633;49.470;11.004;2023-09-08T14:20:39;46.40;24.10
6824;DHT22;58633;49.470;11.004;2023-09-08T14:23:05;46.60;24.20
6824;DHT22;58633;49.470;11.004;2023-09-08T14:25:33;46.60;23.60
6824;DHT22;58633;49.470;11.004;2023-09-08T14:27:58;46.60;23.50
6824;DHT22;58633;49.470;11.004;2023-09-08T14:30:24;46.50;23.90
6824;DHT22;58633;49.470;11.004;2023-09-08T14:32:50;46.50;23.90
6824;DHT22;58633;49.470;11.004;2023-09-08T14:35:15;46.70;23.90
6824;DHT22;58633;49.470;11.004;2023-09-08T14:37:41;46.60;24.00
6824;DHT22;58633;49.470;11.004;2023-09-08T14:40:06;46.70;23.80
6824;DHT22;58633;49.470;11.004;2023-09-08T14:42:32;46.60;23.40
6824;DHT22;58633;49.470;11.004;2023-09-08T14:44:58;46.80;23.50
6824;DHT22;58633;49.470;11.004;2023-09-08T14:47:23;46.70;23.80
6824;DHT22;58633;49.470;11.004;2023-09-08T14:49:49;46.70;24.00
6824;DHT22;58633;49.470;11.004;2023-09-08T14:52:14;46.50;24.10
6824;DHT22;58633;49.470;11.004;2023-09-08T14:54:41;46.50;24.10
6824;DHT22;58633;49.470;11.004;2023-09-08T14:57:07;46.60;24.30
6824;DHT22;58633;49.470;11.004;2023-09-08T14:59:32;46.50;24.40
6824;DHT22;58633;49.470;11.004;2023-09-08T15:01:58;46.60;24.30
6824;DHT22;58633;49.470;11.004;2023-09-08T15:04:24;46.70;24.40
6824;DHT22;58633;49.470;11.004;2023-09-08T15:06:50;46.70;24.30
6824;DHT22;58633;49.470;11.004;2023-09-08T15:09:15;46.70;24.30
6824;DHT22;58633;49.470;11.004;2023-09-08T15:11:41;46.40;24.40
6824;DHT22;58633;49.470;11.004;2023-09-08T15:14:06;46.20;24.60
6824;DHT22;58633;49.470;11.004;2023-09-08T15:16:32;45.70;24.70
6824;DHT22;58633;49.470;11.004;2023-09-08T15:18:57;45.20;24.80
6824;DHT22;58633;49.470;11.004;2023-09-08T15:21:24;44.60;25.30
6824;DHT22;58633;49.470;11.004;2023-09-08T15:23:52;43.90;25.80
6824;DHT22;58633;49.470;11.004;2023-09-08T15:26:18;43.30;26.20
6824;DHT22;58633;49.470;11.004;2023-09-08T15:28:43;42.60;26.90
6824;DHT22;58633;49.470;11.004;2023-09-08T15:31:09;42.50;26.70
6824;DHT22;58633;49.470;11.004;2023-09-08T15:33:37;42.30;26.80
6824;DHT22;58633;49.470;11.004;2023-09-08T15:36:03;42.50;26.60